Terminal Aerodrome Forecast
Issued by NWS

Home | Current Version | Previous Version | Graphics & Text | Print | Product List | Glossary On
Versions: 1 2 3 4 5 6 7 8 9 10 11 12 13 14 15 16 17 18 19 20
000
FTUS43 KGRB 140520
TAFATW
TAF
KATW 140520Z 1406/1506 22005KT P6SM SKC
     FM141900 18010G15KT P6SM BKN080
     FM142300 18009KT 6SM -SN OVC050
     FM150200 18011KT 4SM -SN OVC035
     FM150400 18011KT 3SM -SN OVC030
     FM150500 17010G15KT 2SM -SN OVC026=

USA.gov is the U.S. government's official web portal to all federal, state and local government web resources and services.